Time;durP1;ratioP1;P1;durP2;ratioP2;P2;SDS_P1;SDS_P2;PMS_P1;PMS_P2;Temp;Humidity;BMP_temperature;BMP_pressure;BME280_temperature;BME280_humidity;BME280_pressure;Samples;Min_cycle;Max_cycle;Signal;HPM_P1;HPM_P2
2022/08/04 00:00:38;;;;;;;3.42;3.13;;;30.90;1.00;;;;;;5107197;28;20110;-47
2022/08/04 00:03:27;;;;;;;4.95;3.10;;;30.70;1.00;;;;;;5079152;28;20415;-45
2022/08/04 00:06:15;;;;;;;5.03;2.97;;;30.80;1.00;;;;;;5099216;28;20016;-48
2022/08/04 00:08:50;;;;;;;4.18;3.30;;;30.70;1.00;;;;;;5105767;28;20020;-44
2022/08/04 00:11:21;;;;;;;4.18;3.22;;;30.80;1.00;;;;;;5112390;28;20392;-44
2022/08/04 00:14:13;;;;;;;4.85;3.13;;;30.80;1.00;;;;;;5110349;28;20024;-45
2022/08/04 00:16:40;;;;;;;6.93;3.58;;;30.70;1.00;;;;;;5113055;28;20023;-44
2022/08/04 00:19:10;;;;;;;3.85;3.35;;;30.70;1.00;;;;;;5094466;28;20389;-44
2022/08/04 00:21:38;;;;;;;6.43;3.85;;;30.70;1.00;;;;;;5112999;28;20053;-46
2022/08/04 00:24:05;;;;;;;7.28;4.38;;;30.70;1.00;;;;;;5112619;28;20028;-45
2022/08/04 00:26:32;;;;;;;7.22;3.50;;;30.70;1.00;;;;;;5113436;28;20027;-44
2022/08/04 00:28:59;;;;;;;8.60;3.78;;;30.70;1.00;;;;;;5111935;28;20027;-44
2022/08/04 00:31:26;;;;;;;8.02;3.88;;;30.50;1.00;;;;;;5112435;28;20379;-44
2022/08/04 00:33:53;;;;;;;5.10;3.22;;;30.50;1.00;;;;;;5112591;28;20444;-44
2022/08/04 00:36:20;;;;;;;4.45;3.70;;;30.60;1.00;;;;;;5113273;28;20027;-44
2022/08/04 00:38:46;;;;;;;8.02;3.50;;;30.50;1.00;;;;;;5112583;28;20528;-45
2022/08/04 00:41:36;;;;;;;7.13;3.90;;;30.40;1.00;;;;;;5113225;28;20023;-44
2022/08/04 00:44:15;;;;;;;4.78;3.25;;;30.40;1.00;;;;;;5112469;28;20036;-44
2022/08/04 00:47:03;;;;;;;5.57;3.50;;;30.40;1.00;;;;;;5113093;28;20259;-44
2022/08/04 00:50:03;;;;;;;7.80;3.58;;;30.50;1.00;;;;;;5112011;28;20038;-45
2022/08/04 00:52:55;;;;;;;4.28;3.67;;;30.40;1.00;;;;;;5112953;28;20024;-46
2022/08/04 00:55:54;;;;;;;6.38;3.55;;;30.40;1.00;;;;;;5109523;28;20031;-46
2022/08/04 00:58:50;;;;;;;4.93;3.58;;;30.40;1.00;;;;;;5112297;28;20020;-45
2022/08/04 01:01:47;;;;;;;3.33;2.97;;;30.40;1.00;;;;;;5112982;28;20024;-45
2022/08/04 01:04:19;;;;;;;5.70;3.10;;;30.30;1.00;;;;;;5078001;28;20044;-47
2022/08/04 01:07:23;;;;;;;4.60;3.40;;;30.30;1.00;;;;;;5112919;28;20066;-45
2022/08/04 01:10:21;;;;;;;4.10;3.17;;;30.30;1.00;;;;;;5111135;28;20123;-45
2022/08/04 01:13:09;;;;;;;4.43;3.30;;;30.30;1.00;;;;;;5112782;28;20260;-47
2022/08/04 01:15:45;;;;;;;6.05;4.05;;;30.20;1.00;;;;;;5066855;28;20188;-45
2022/08/04 01:18:21;;;;;;;6.07;3.45;;;30.30;1.00;;;;;;5111907;28;20492;-45
2022/08/04 01:21:23;;;;;;;5.55;3.80;;;30.20;1.00;;;;;;5109762;28;20089;-46
2022/08/04 01:24:15;;;;;;;4.05;3.03;;;30.20;1.00;;;;;;5110877;28;20854;-45
2022/08/04 01:26:46;;;;;;;6.85;3.58;;;30.20;1.00;;;;;;5111705;28;20021;-43
2022/08/04 01:29:14;;;;;;;5.15;3.78;;;30.20;1.00;;;;;;5110947;28;20516;-44
2022/08/04 01:32:07;;;;;;;5.47;3.40;;;30.30;1.00;;;;;;5111721;28;20024;-50
2022/08/04 01:34:42;;;;;;;3.63;3.25;;;30.20;1.00;;;;;;5100438;28;20031;-46
2022/08/04 01:37:16;;;;;;;5.93;3.53;;;30.20;1.00;;;;;;5111775;28;20083;-46
2022/08/04 01:39:50;;;;;;;5.78;3.40;;;30.20;1.00;;;;;;5092624;28;20020;-44
2022/08/04 01:42:20;;;;;;;3.88;3.38;;;30.10;1.00;;;;;;5111377;28;20063;-46
2022/08/04 01:44:48;;;;;;;9.05;3.42;;;30.10;1.00;;;;;;5110573;28;20038;-44
2022/08/04 01:47:19;;;;;;;4.10;3.00;;;30.10;1.00;;;;;;5111559;28;20076;-44
2022/08/04 01:49:47;;;;;;;7.40;3.35;;;30.10;1.00;;;;;;5091776;28;20024;-46
2022/08/04 01:52:16;;;;;;;3.28;3.05;;;30.10;1.00;;;;;;5110294;28;20032;-46
2022/08/04 01:54:41;;;;;;;5.25;3.25;;;30.00;1.00;;;;;;5110958;28;20392;-47
2022/08/04 01:57:09;;;;;;;5.35;3.10;;;30.00;1.00;;;;;;5111419;28;20111;-46
2022/08/04 01:59:37;;;;;;;4.13;3.00;;;30.00;1.00;;;;;;5110427;28;20103;-46
2022/08/04 02:02:05;;;;;;;5.47;3.08;;;30.00;1.00;;;;;;5110674;28;20058;-46
2022/08/04 02:04:31;;;;;;;4.00;3.22;;;30.00;1.00;;;;;;5088976;28;20342;-44
2022/08/04 02:07:02;;;;;;;3.72;3.40;;;29.90;1.00;;;;;;5112088;28;20099;-44
2022/08/04 02:09:52;;;;;;;2.90;2.70;;;30.00;1.00;;;;;;5083527;28;20028;-48
2022/08/04 02:12:54;;;;;;;2.80;2.60;;;29.90;1.00;;;;;;5081513;28;20035;-45
2022/08/04 02:15:25;;;;;;;4.80;3.58;;;29.90;1.00;;;;;;5075417;28;20078;-45
2022/08/04 02:18:02;;;;;;;3.75;3.10;;;29.80;1.00;;;;;;5103715;28;20103;-44
2022/08/04 02:20:42;;;;;;;5.10;3.42;;;29.90;1.00;;;;;;5111195;28;20063;-45
2022/08/04 02:23:12;;;;;;;3.10;2.75;;;29.90;1.00;;;;;;5109726;28;20373;-46
2022/08/04 02:26:18;;;;;;;3.90;3.25;;;29.80;1.00;;;;;;5111425;28;20078;-46
2022/08/04 02:29:10;;;;;;;3.72;3.13;;;29.80;1.00;;;;;;5111360;28;20111;-47
2022/08/04 02:31:56;;;;;;;7.05;2.83;;;29.80;1.00;;;;;;5100419;28;20019;-47
2022/08/04 02:34:37;;;;;;;3.42;3.13;;;29.70;1.00;;;;;;5111021;28;20145;-46
2022/08/04 02:37:04;;;;;;;3.88;3.50;;;29.70;1.00;;;;;;5093457;28;20035;-45
2022/08/04 02:39:34;;;;;;;4.18;3.88;;;29.70;1.00;;;;;;5112688;28;20020;-47
2022/08/04 02:42:02;;;;;;;4.75;3.15;;;29.80;1.00;;;;;;5115495;28;20515;-45
2022/08/04 02:44:30;;;;;;;6.18;3.42;;;29.70;1.00;;;;;;5114798;28;20020;-45
2022/08/04 02:46:56;;;;;;;3.92;3.45;;;29.70;1.00;;;;;;5111677;28;20072;-46
2022/08/04 02:49:22;;;;;;;5.22;3.33;;;29.70;1.00;;;;;;5101925;28;20035;-46
2022/08/04 02:51:58;;;;;;;3.30;2.80;;;29.70;1.00;;;;;;5104474;28;20381;-46
2022/08/04 02:54:37;;;;;;;7.55;3.10;;;29.60;1.00;;;;;;5111995;28;20032;-46
2022/08/04 02:57:08;;;;;;;4.38;2.90;;;29.60;1.00;;;;;;5105527;28;20083;-45
2022/08/04 02:59:55;;;;;;;6.85;3.28;;;29.60;1.00;;;;;;5111085;28;20019;-47
2022/08/04 03:02:45;;;;;;;3.70;3.42;;;29.60;1.00;;;;;;5115311;28;20528;-47
2022/08/04 03:05:17;;;;;;;3.50;3.17;;;29.60;1.00;;;;;;5103388;28;20458;-45
2022/08/04 03:08:39;;;;;;;3.15;2.85;;;29.60;1.00;;;;;;5107612;28;20058;-47
2022/08/04 03:11:18;;;;;;;3.40;3.10;;;29.50;1.00;;;;;;5048267;28;20479;-47
2022/08/04 03:14:13;;;;;;;3.90;3.20;;;29.40;1.00;;;;;;5052275;28;20021;-46
2022/08/04 03:17:09;;;;;;;3.92;2.72;;;29.50;1.00;;;;;;5104287;28;20526;-46
2022/08/04 03:19:56;;;;;;;3.47;3.10;;;29.50;1.00;;;;;;5099705;28;20110;-46
2022/08/04 03:23:05;;;;;;;4.68;3.42;;;29.40;1.00;;;;;;5103702;28;20032;-45
2022/08/04 03:26:13;;;;;;;3.75;3.38;;;29.30;1.00;;;;;;5103813;28;20035;-45
2022/08/04 03:28:52;;;;;;;3.50;3.20;;;29.40;1.00;;;;;;5068839;28;20409;-45
2022/08/04 03:31:44;;;;;;;6.20;3.40;;;29.30;1.00;;;;;;5097408;28;20496;-45
2022/08/04 03:34:50;;;;;;;4.53;3.35;;;29.40;1.00;;;;;;5103511;28;20492;-47
2022/08/04 03:37:50;;;;;;;4.88;3.60;;;29.30;1.00;;;;;;5101566;28;20063;-45
2022/08/04 03:40:34;;;;;;;6.68;3.85;;;29.20;1.00;;;;;;5113557;28;20023;-48
2022/08/04 03:43:28;;;;;;;4.30;3.60;;;29.30;1.00;;;;;;5114475;28;20127;-45
2022/08/04 03:46:30;;;;;;;6.43;4.38;;;29.20;1.00;;;;;;5105519;28;20479;-45
2022/08/04 03:48:56;;;;;;;5.97;3.55;;;29.20;1.00;;;;;;5114338;28;20058;-45
2022/08/04 03:54:55;;;;;;;7.85;3.70;;;29.20;1.00;;;;;;5113501;28;20099;-46
2022/08/04 03:57:40;;;;;;;5.10;3.55;;;29.20;1.00;;;;;;5114207;28;20523;-48
2022/08/04 04:00:12;;;;;;;3.88;3.15;;;29.20;1.00;;;;;;5113204;28;20043;-47
2022/08/04 04:02:50;;;;;;;4.10;3.17;;;29.20;1.00;;;;;;5114197;28;20035;-45
2022/08/04 04:05:40;;;;;;;6.28;3.17;;;29.10;1.00;;;;;;5113520;28;20261;-45
2022/08/04 04:08:23;;;;;;;6.88;2.83;;;29.10;1.00;;;;;;5114125;28;20038;-46
2022/08/04 04:10:55;;;;;;;6.03;2.90;;;29.10;1.00;;;;;;5104961;28;20118;-45
2022/08/04 04:13:32;;;;;;;3.92;2.83;;;29.10;1.00;;;;;;5110621;28;20511;-45
2022/08/04 04:16:33;;;;;;;2.97;2.72;;;29.00;1.00;;;;;;5106492;28;20084;-46
2022/08/04 04:19:15;;;;;;;2.97;2.78;;;29.10;1.00;;;;;;5068077;28;20118;-46
2022/08/04 04:22:19;;;;;;;3.92;2.83;;;29.10;1.00;;;;;;5107590;28;20108;-45
2022/08/04 04:25:01;;;;;;;3.92;2.78;;;29.10;1.00;;;;;;5102478;28;20064;-46
2022/08/04 04:27:33;;;;;;;3.97;2.90;;;29.10;1.00;;;;;;5113550;28;20160;-45
2022/08/04 04:30:07;;;;;;;6.28;3.33;;;29.10;1.00;;;;;;5112787;28;20027;-47
2022/08/04 04:32:54;;;;;;;3.97;2.83;;;29.10;1.00;;;;;;5113370;28;20107;-45
2022/08/04 04:35:35;;;;;;;5.97;2.88;;;29.10;1.00;;;;;;5078929;28;20408;-45
2022/08/04 04:38:19;;;;;;;4.38;2.85;;;29.10;1.00;;;;;;5108832;28;20046;-47
2022/08/04 04:40:56;;;;;;;4.35;3.20;;;29.10;1.00;;;;;;5103553;28;20028;-45
2022/08/04 04:43:27;;;;;;;5.53;3.03;;;29.00;1.00;;;;;;5109592;28;20454;-45
2022/08/04 04:46:12;;;;;;;3.00;2.80;;;29.10;1.00;;;;;;5112484;28;20031;-46
2022/08/04 04:48:45;;;;;;;5.57;3.38;;;29.10;1.00;;;;;;5113124;28;20026;-45
2022/08/04 04:51:26;;;;;;;6.87;3.10;;;29.10;1.00;;;;;;5094595;28;20135;-46
2022/08/04 04:54:16;;;;;;;3.95;3.00;;;29.10;1.00;;;;;;5113252;28;20349;-45
2022/08/04 04:57:04;;;;;;;4.85;3.13;;;29.00;1.00;;;;;;5111936;28;20465;-45
2022/08/04 04:59:35;;;;;;;4.72;3.35;;;29.10;1.00;;;;;;5112998;28;20019;-45
2022/08/04 05:02:20;;;;;;;4.95;2.95;;;29.00;1.00;;;;;;5112661;28;20035;-45
2022/08/04 05:05:10;;;;;;;5.25;3.28;;;29.10;1.00;;;;;;5111877;28;20085;-46
2022/08/04 05:08:12;;;;;;;5.82;3.15;;;29.10;1.00;;;;;;5098431;28;20035;-45
2022/08/04 05:11:12;;;;;;;2.88;2.67;;;29.10;1.00;;;;;;5102875;28;20438;-45
2022/08/04 05:13:49;;;;;;;4.00;2.85;;;29.10;1.00;;;;;;5111795;28;20171;-48
2022/08/04 05:16:26;;;;;;;4.40;2.65;;;29.10;1.00;;;;;;5112190;28;20031;-46
2022/08/04 05:19:25;;;;;;;4.53;2.88;;;29.10;1.00;;;;;;5112704;28;20026;-46
2022/08/04 05:22:02;;;;;;;2.95;2.53;;;29.10;1.00;;;;;;5111929;28;20039;-45
2022/08/04 05:24:31;;;;;;;4.40;2.63;;;29.10;1.00;;;;;;5112619;28;20024;-46
2022/08/04 05:27:04;;;;;;;6.30;3.35;;;29.10;1.00;;;;;;5111339;28;20210;-45
2022/08/04 05:29:38;;;;;;;4.20;2.58;;;29.10;1.00;;;;;;5111265;28;20055;-45
2022/08/04 05:32:11;;;;;;;4.85;2.80;;;29.10;1.00;;;;;;5112010;28;20029;-47
2022/08/04 05:34:43;;;;;;;3.80;2.93;;;29.10;1.00;;;;;;5112518;28;20082;-46
2022/08/04 05:37:15;;;;;;;6.20;3.30;;;29.20;1.00;;;;;;5112193;28;20036;-45
2022/08/04 05:40:04;;;;;;;5.35;3.15;;;29.20;1.00;;;;;;5111060;28;20016;-46
2022/08/04 05:42:34;;;;;;;4.60;3.03;;;29.20;1.00;;;;;;5100197;28;20172;-45
2022/08/04 05:45:05;;;;;;;5.60;2.80;;;29.10;1.00;;;;;;5093251;28;20031;-47
2022/08/04 05:47:32;;;;;;;6.22;3.33;;;29.20;1.00;;;;;;5112471;28;20020;-50
2022/08/04 05:50:00;;;;;;;4.25;2.72;;;29.20;1.00;;;;;;5111538;28;20023;-46
2022/08/04 05:52:26;;;;;;;5.55;3.75;;;29.30;1.00;;;;;;5097942;28;20106;-49
2022/08/04 05:54:54;;;;;;;5.10;3.00;;;29.30;1.00;;;;;;5093083;28;20075;-45
2022/08/04 05:57:20;;;;;;;10.05;3.40;;;29.30;1.00;;;;;;5112016;28;20039;-45
2022/08/04 05:59:49;;;;;;;2.80;2.50;;;29.30;1.00;;;;;;5112430;28;20020;-47
2022/08/04 06:02:17;;;;;;;5.50;2.80;;;29.30;1.00;;;;;;5111862;28;20038;-45
2022/08/04 06:04:46;;;;;;;3.15;2.90;;;29.30;1.00;;;;;;5111301;28;20051;-45
2022/08/04 06:07:12;;;;;;;4.93;2.85;;;29.30;1.00;;;;;;5110956;28;20036;-46
2022/08/04 06:09:39;;;;;;;4.25;2.75;;;29.30;1.00;;;;;;5103849;28;20020;-45
2022/08/04 06:12:14;;;;;;;5.90;3.08;;;29.30;1.00;;;;;;5111404;28;20036;-50
2022/08/04 06:14:44;;;;;;;3.03;2.78;;;29.40;1.00;;;;;;5101057;28;20026;-49
2022/08/04 06:17:18;;;;;;;4.57;2.45;;;29.30;1.00;;;;;;5115471;28;20105;-45
2022/08/04 06:19:44;;;;;;;3.45;2.35;;;29.40;1.00;;;;;;5102628;28;20059;-46
2022/08/04 06:22:11;;;;;;;3.95;3.15;;;29.40;1.00;;;;;;5115315;28;20066;-45
2022/08/04 06:24:38;;;;;;;5.28;2.78;;;29.50;1.00;;;;;;5115911;28;20026;-45
2022/08/04 06:27:06;;;;;;;4.93;2.67;;;29.30;1.00;;;;;;5115241;28;20028;-45
2022/08/04 06:29:36;;;;;;;4.82;2.45;;;29.40;1.00;;;;;;5097420;28;20399;-45
2022/08/04 06:32:23;;;;;;;5.30;2.83;;;29.40;1.00;;;;;;5114873;28;20028;-44
2022/08/04 06:34:51;;;;;;;3.70;2.63;;;29.50;1.00;;;;;;5101408;28;20031;-45
2022/08/04 06:37:17;;;;;;;3.25;2.80;;;29.50;1.00;;;;;;5110068;28;20042;-47
2022/08/04 06:39:44;;;;;;;4.95;3.03;;;29.50;1.00;;;;;;5115678;28;20028;-45
2022/08/04 06:42:10;;;;;;;7.70;3.10;;;29.50;1.00;;;;;;5097082;28;20108;-45
2022/08/04 06:44:38;;;;;;;3.90;2.67;;;29.50;1.00;;;;;;5115307;28;20500;-45
2022/08/04 06:47:04;;;;;;;3.00;2.70;;;29.50;1.00;;;;;;5114677;28;20385;-45
2022/08/04 06:49:31;;;;;;;2.97;2.50;;;29.60;1.00;;;;;;5115537;28;20026;-45
2022/08/04 06:51:57;;;;;;;3.55;2.63;;;29.50;1.00;;;;;;5114733;28;20046;-45
2022/08/04 06:54:23;;;;;;;6.63;2.80;;;29.60;1.00;;;;;;5114804;28;20383;-45
2022/08/04 06:56:51;;;;;;;3.95;2.38;;;29.60;1.00;;;;;;5095613;28;20036;-46
2022/08/04 06:59:19;;;;;;;3.70;2.50;;;29.60;1.00;;;;;;5115744;28;20024;-48
2022/08/04 07:01:45;;;;;;;6.68;2.60;;;29.60;1.00;;;;;;5114628;28;20016;-45
2022/08/04 07:04:12;;;;;;;4.22;2.88;;;29.60;1.00;;;;;;5115537;28;20096;-45
2022/08/04 07:06:37;;;;;;;3.40;2.97;;;29.70;1.00;;;;;;5113603;28;20020;-45
2022/08/04 07:09:05;;;;;;;6.18;2.72;;;29.70;1.00;;;;;;5078168;28;20099;-45
2022/08/04 07:11:32;;;;;;;4.88;3.13;;;29.70;1.00;;;;;;5104026;28;20422;-45
2022/08/04 07:13:58;;;;;;;3.55;3.13;;;29.70;1.00;;;;;;5115081;28;20066;-45
2022/08/04 07:16:24;;;;;;;5.43;3.10;;;29.80;1.00;;;;;;5114428;28;20036;-46
2022/08/04 07:18:50;;;;;;;4.88;2.78;;;29.80;1.00;;;;;;5115303;28;20072;-45
2022/08/04 07:21:21;;;;;;;5.30;2.85;;;29.80;1.00;;;;;;5113412;28;20414;-45
2022/08/04 07:23:48;;;;;;;6.18;2.47;;;29.80;1.00;;;;;;5114931;28;20039;-47
2022/08/04 07:26:16;;;;;;;8.95;2.97;;;29.90;1.00;;;;;;5113623;28;20389;-45
2022/08/04 07:28:41;;;;;;;4.15;2.80;;;29.80;1.00;;;;;;5114873;28;20023;-46
2022/08/04 07:31:11;;;;;;;5.00;2.55;;;29.80;1.00;;;;;;5113921;28;21811;-46
2022/08/04 07:33:37;;;;;;;3.67;2.63;;;29.80;1.00;;;;;;5114736;28;20023;-45
2022/08/04 07:36:03;;;;;;;7.55;2.67;;;29.90;1.00;;;;;;5113669;28;20388;-46
2022/08/04 07:38:29;;;;;;;5.10;2.60;;;30.00;1.00;;;;;;5114618;28;20453;-45
2022/08/04 07:40:55;;;;;;;3.78;2.60;;;30.00;1.00;;;;;;5114002;28;20102;-47
2022/08/04 07:43:21;;;;;;;4.20;3.70;;;30.00;1.00;;;;;;5113057;28;20043;-46
2022/08/04 07:45:47;;;;;;;5.95;3.47;;;30.00;1.00;;;;;;5113324;28;20069;-45
2022/08/04 07:48:14;;;;;;;4.97;3.15;;;30.00;1.00;;;;;;5112060;28;20027;-46
2022/08/04 07:50:43;;;;;;;3.33;3.00;;;30.00;1.00;;;;;;5111921;28;20016;-46
2022/08/04 07:53:10;;;;;;;8.38;3.15;;;30.10;1.00;;;;;;5112158;28;20459;-46
2022/08/04 07:55:35;;;;;;;7.03;3.10;;;30.00;1.00;;;;;;5113070;28;20019;-45
2022/08/04 07:58:01;;;;;;;6.38;2.80;;;30.10;1.00;;;;;;5109483;28;20100;-45
2022/08/04 08:00:28;;;;;;;4.30;2.70;;;30.10;1.00;;;;;;5113123;28;20027;-45
2022/08/04 08:02:55;;;;;;;8.15;3.05;;;30.20;1.00;;;;;;5112289;28;20549;-47
2022/08/04 08:05:20;;;;;;;4.07;2.80;;;30.20;1.00;;;;;;5113100;28;20019;-45
2022/08/04 08:07:48;;;;;;;3.38;2.35;;;30.30;1.00;;;;;;5112299;28;20488;-46
2022/08/04 08:10:14;;;;;;;4.65;2.92;;;30.30;1.00;;;;;;5112857;28;20034;-47
2022/08/04 08:12:41;;;;;;;3.40;2.53;;;30.30;1.00;;;;;;5112006;28;20149;-46
2022/08/04 08:15:08;;;;;;;4.80;2.78;;;30.40;1.00;;;;;;5092966;28;20027;-45
2022/08/04 08:17:34;;;;;;;4.53;2.20;;;30.40;1.00;;;;;;5104177;28;20497;-45
2022/08/04 08:20:00;;;;;;;7.82;2.63;;;30.40;1.00;;;;;;5113145;28;20023;-45
2022/08/04 08:22:27;;;;;;;3.78;2.38;;;30.50;1.00;;;;;;5103561;28;20031;-46
2022/08/04 08:24:53;;;;;;;6.25;2.78;;;30.50;1.00;;;;;;5112732;28;20057;-46
2022/08/04 08:27:19;;;;;;;6.07;2.80;;;30.50;1.00;;;;;;5103150;28;20118;-47
2022/08/04 08:29:45;;;;;;;3.20;2.90;;;30.60;1.00;;;;;;5112682;28;20575;-46
2022/08/04 08:32:12;;;;;;;7.55;2.95;;;30.50;1.00;;;;;;5111820;28;20477;-45
2022/08/04 08:34:39;;;;;;;4.22;2.58;;;30.60;1.00;;;;;;5112559;28;20030;-45
2022/08/04 08:37:14;;;;;;;7.43;2.80;;;30.60;1.00;;;;;;5109862;28;20044;-46
2022/08/04 08:40:17;;;;;;;6.05;2.53;;;30.70;1.00;;;;;;5112451;28;20027;-47
2022/08/04 08:43:30;;;;;;;8.35;2.83;;;30.70;1.00;;;;;;5044303;28;1635665;-45
2022/08/04 08:46:24;;;;;;;5.55;2.90;;;30.70;1.00;;;;;;5113296;28;20077;-46
2022/08/04 08:48:57;;;;;;;4.13;3.33;;;30.80;1.00;;;;;;5089439;28;20036;-49
2022/08/04 08:51:42;;;;;;;6.35;2.20;;;30.80;1.00;;;;;;5093573;28;20461;-45
2022/08/04 08:54:22;;;;;;;3.53;2.33;;;30.80;1.00;;;;;;5113289;28;20068;-46
2022/08/04 08:57:15;;;;;;;3.58;2.50;;;30.80;1.00;;;;;;5112458;28;20418;-46
2022/08/04 09:00:22;;;;;;;5.15;3.08;;;30.80;1.00;;;;;;5111764;28;20067;-49
2022/08/04 09:03:25;;;;;;;3.75;2.75;;;30.80;1.00;;;;;;5104634;28;20028;-45
2022/08/04 09:06:09;;;;;;;3.50;2.78;;;30.90;1.00;;;;;;5100471;28;20028;-47
2022/08/04 09:09:00;;;;;;;5.28;3.17;;;30.90;1.00;;;;;;5099361;28;20024;-45
2022/08/04 09:11:35;;;;;;;3.45;3.13;;;31.00;1.00;;;;;;5111232;28;20028;-45
2022/08/04 09:14:19;;;;;;;3.80;3.20;;;31.10;1.00;;;;;;5112156;28;20032;-46
2022/08/04 09:17:04;;;;;;;5.80;3.40;;;31.10;1.00;;;;;;5112024;28;20076;-45
2022/08/04 09:19:50;;;;;;;3.75;3.22;;;31.10;1.00;;;;;;5100649;28;20502;-47
2022/08/04 09:22:23;;;;;;;4.82;3.47;;;31.10;1.00;;;;;;5111915;28;20023;-46
2022/08/04 09:25:13;;;;;;;3.80;3.30;;;31.20;1.00;;;;;;5112645;28;20441;-46
2022/08/04 09:27:46;;;;;;;4.85;3.67;;;31.30;1.00;;;;;;5111623;28;20046;-47
2022/08/04 09:30:18;;;;;;;7.03;3.88;;;31.30;1.00;;;;;;5112736;28;20065;-46
2022/08/04 09:33:21;;;;;;;4.57;3.10;;;31.40;1.00;;;;;;5111569;28;20026;-49
2022/08/04 09:35:59;;;;;;;6.18;3.15;;;31.40;1.00;;;;;;5094537;28;20077;-45
2022/08/04 09:38:53;;;;;;;7.03;3.40;;;31.40;1.00;;;;;;5107783;28;20032;-46
2022/08/04 09:41:24;;;;;;;;;;;31.60;1.00;;;;;;5111874;28;20085;-46
2022/08/04 09:44:08;;;;;;;2.72;2.55;;;31.50;1.00;;;;;;5105280;28;19915;-46
2022/08/04 09:46:58;;;;;;;;;;;31.60;1.00;;;;;;5108876;28;20122;-47
2022/08/04 09:49:38;;;;;;;4.43;3.25;;;31.60;1.00;;;;;;5079338;28;19915;-46
2022/08/04 09:52:19;;;;;;;3.85;2.70;;;31.80;1.00;;;;;;5096261;28;20366;-46
2022/08/04 09:54:51;;;;;;;3.28;2.90;;;31.70;1.00;;;;;;5091327;28;20485;-45
2022/08/04 09:57:30;;;;;;;4.32;3.05;;;31.80;1.00;;;;;;5095414;28;20068;-45
2022/08/04 10:00:08;;;;;;;4.00;2.53;;;31.90;1.00;;;;;;5106136;28;20016;-45
2022/08/04 10:02:38;;;;;;;5.45;3.33;;;31.90;1.00;;;;;;5080430;28;20028;-45
2022/08/04 10:05:08;;;;;;;4.88;3.10;;;32.00;1.00;;;;;;5112129;28;20472;-46
2022/08/04 10:07:55;;;;;;;3.45;3.10;;;32.00;1.00;;;;;;5103003;28;20028;-45
2022/08/04 10:10:40;;;;;;;5.10;2.92;;;32.10;1.00;;;;;;5100368;28;20031;-46
2022/08/04 10:13:19;;;;;;;2.65;2.45;;;32.10;1.00;;;;;;5102717;28;20299;-45
2022/08/04 10:16:16;;;;;;;3.97;2.63;;;32.00;1.00;;;;;;5111232;28;20020;-46
2022/08/04 10:19:13;;;;;;;3.88;3.47;;;32.20;1.00;;;;;;5107837;28;20500;-45
2022/08/04 10:21:59;;;;;;;3.50;2.80;;;32.40;1.00;;;;;;5112149;28;20352;-45
2022/08/04 10:24:44;;;;;;;3.22;2.72;;;32.30;1.00;;;;;;5111472;28;20024;-45
2022/08/04 10:27:26;;;;;;;2.50;2.40;;;32.30;1.00;;;;;;5110923;28;20402;-44
2022/08/04 10:30:01;;;;;;;2.88;2.67;;;32.40;1.00;;;;;;5098730;28;20081;-44
2022/08/04 10:32:51;;;;;;;3.97;2.50;;;32.40;1.00;;;;;;5106084;28;20031;-47
2022/08/04 10:35:20;;;;;;;4.70;3.35;;;32.60;1.00;;;;;;5107182;28;20032;-44
2022/08/04 10:37:55;;;;;;;2.88;2.53;;;32.70;1.00;;;;;;5108645;28;20484;-44
2022/08/04 10:40:45;;;;;;;2.95;2.75;;;32.60;1.00;;;;;;5107657;28;20031;-44
2022/08/04 10:43:39;;;;;;;4.10;2.90;;;32.60;1.00;;;;;;5110418;28;20432;-44
2022/08/04 10:46:25;;;;;;;4.78;3.03;;;32.80;1.00;;;;;;5111675;28;20028;-45
2022/08/04 10:49:01;;;;;;;2.88;2.67;;;32.90;1.00;;;;;;5103780;28;20024;-45
2022/08/04 10:51:43;;;;;;;4.13;2.35;;;32.90;1.00;;;;;;5109194;28;20396;-44
2022/08/04 10:54:46;;;;;;;4.43;2.97;;;32.90;1.00;;;;;;5109784;28;20031;-44
2022/08/04 10:57:43;;;;;;;5.90;2.60;;;33.10;1.00;;;;;;5110631;28;20096;-44
2022/08/04 11:00:15;;;;;;;2.85;2.53;;;33.10;1.00;;;;;;5112673;28;20068;-44
2022/08/04 11:02:40;;;;;;;4.80;2.83;;;33.20;1.00;;;;;;5114571;28;20103;-45
2022/08/04 11:05:36;;;;;;;3.08;2.83;;;33.20;1.00;;;;;;5115143;28;20118;-45
2022/08/04 11:08:10;;;;;;;3.92;3.17;;;33.30;1.00;;;;;;5113456;28;20031;-46
2022/08/04 11:10:50;;;;;;;3.50;3.20;;;33.30;1.00;;;;;;5115109;28;20020;-45
2022/08/04 11:13:17;;;;;;;5.32;3.20;;;33.40;1.00;;;;;;5114128;28;20467;-44
2022/08/04 11:15:54;;;;;;;5.30;3.17;;;33.60;1.00;;;;;;5115072;28;20028;-44
2022/08/04 11:18:48;;;;;;;4.63;3.20;;;33.80;1.00;;;;;;5114096;28;20524;-45
2022/08/04 11:21:21;;;;;;;5.68;3.30;;;33.80;1.00;;;;;;5096399;28;20039;-45
2022/08/04 11:23:54;;;;;;;;;;;33.90;1.00;;;;;;5114294;28;20028;-44
2022/08/04 11:26:50;;;;;;;6.13;3.25;;;33.90;1.00;;;;;;5113983;28;19962;-44
2022/08/04 11:29:39;;;;;;;4.25;3.95;;;34.00;1.00;;;;;;5114303;28;20144;-44
2022/08/04 11:32:13;;;;;;;3.40;3.00;;;33.90;1.00;;;;;;5114573;28;20012;-44
2022/08/04 11:34:46;;;;;;;3.72;3.42;;;34.00;1.00;;;;;;5113817;28;20031;-46
2022/08/04 11:37:22;;;;;;;4.65;3.47;;;34.20;1.00;;;;;;5114660;28;20100;-45
2022/08/04 11:39:52;;;;;;;6.88;3.30;;;34.40;1.00;;;;;;5113989;28;20019;-45
2022/08/04 11:42:27;;;;;;;4.55;3.65;;;34.70;1.00;;;;;;5114174;28;20085;-45
2022/08/04 11:45:04;;;;;;;4.32;3.97;;;34.70;1.00;;;;;;5113924;28;20032;-45
2022/08/04 11:48:02;;;;;;;5.35;4.63;;;34.90;1.00;;;;;;5082090;28;20084;-44
2022/08/04 11:50:40;;;;;;;4.47;3.70;;;35.20;1.00;;;;;;5110556;28;20054;-46
2022/08/04 11:53:07;;;;;;;9.88;4.13;;;35.50;1.00;;;;;;5113269;28;20441;-45
2022/08/04 11:55:34;;;;;;;4.32;3.65;;;36.10;1.00;;;;;;5113156;28;20024;-48
2022/08/04 11:58:00;;;;;;;5.93;3.58;;;36.80;1.00;;;;;;5114175;28;20027;-52
2022/08/04 12:00:29;;;;;;;5.60;4.50;;;37.80;1.00;;;;;;5112930;28;20100;-45
2022/08/04 12:03:17;;;;;;;10.85;4.90;;;38.60;1.00;;;;;;5113615;28;20078;-45
2022/08/04 12:06:12;;;;;;;4.90;4.60;;;38.80;1.00;;;;;;5107863;28;20043;-47
2022/08/04 12:08:59;;;;;;;9.27;4.50;;;39.10;1.00;;;;;;5113519;28;20047;-46
2022/08/04 12:11:45;;;;;;;5.30;4.63;;;41.20;1.00;;;;;;5111869;28;20015;-45
2022/08/04 12:14:39;;;;;;;7.00;4.50;;;41.10;1.00;;;;;;5114007;28;20035;-48
2022/08/04 12:17:05;;;;;;;5.80;4.72;;;41.00;1.00;;;;;;5113092;28;20074;-45
2022/08/04 12:19:34;;;;;;;5.00;4.60;;;42.60;1.00;;;;;;5113806;28;20056;-45
2022/08/04 12:22:08;;;;;;;5.18;4.70;;;44.30;1.00;;;;;;5112853;28;20385;-45
2022/08/04 12:24:47;;;;;;;5.57;5.15;;;46.50;1.00;;;;;;5112857;28;20513;-45
2022/08/04 12:27:22;;;;;;;5.70;5.20;;;47.10;99.90;;;;;;5113201;28;20035;-45
2022/08/04 12:29:50;;;;;;;6.20;5.68;;;48.70;99.90;;;;;;5099889;28;20099;-48
2022/08/04 12:32:33;;;;;;;5.68;5.22;;;48.80;99.90;;;;;;5112604;28;20406;-50
2022/08/04 12:35:22;;;;;;;5.95;5.45;;;48.70;99.90;;;;;;5100117;28;20047;-46
2022/08/04 12:38:01;;;;;;;6.60;6.15;;;47.20;99.90;;;;;;5107591;28;20404;-49
2022/08/04 12:40:32;;;;;;;6.03;5.60;;;46.50;99.90;;;;;;5112594;28;20024;-48
2022/08/04 12:43:09;;;;;;;7.00;6.43;;;46.00;1.00;;;;;;5113016;28;20050;-45
2022/08/04 12:45:35;;;;;;;7.75;6.70;;;45.90;1.00;;;;;;5112234;28;20046;-47
2022/08/04 12:48:05;;;;;;;6.63;6.13;;;45.10;1.00;;;;;;5113261;28;20498;-46
2022/08/04 12:50:31;;;;;;;6.60;6.05;;;44.60;1.00;;;;;;5111624;28;20446;-46
2022/08/04 12:52:57;;;;;;;7.00;6.38;;;43.00;1.00;;;;;;5113465;28;20436;-47
2022/08/04 12:55:29;;;;;;;7.82;7.25;;;42.30;1.00;;;;;;5111336;28;20020;-47
2022/08/04 12:57:57;;;;;;;7.47;6.85;;;41.80;1.00;;;;;;5113125;28;20078;-48
2022/08/04 13:00:34;;;;;;;7.47;6.97;;;42.10;1.00;;;;;;5111987;28;20019;-47
2022/08/04 13:03:06;;;;;;;7.40;6.70;;;42.30;1.00;;;;;;5098054;28;20405;-46
2022/08/04 13:05:33;;;;;;;7.40;6.88;;;42.80;1.00;;;;;;5096560;28;20126;-48
2022/08/04 13:08:03;;;;;;;7.25;6.75;;;43.00;1.00;;;;;;5110382;28;20074;-46
2022/08/04 13:10:35;;;;;;;7.50;7.20;;;43.70;1.00;;;;;;5079699;28;20654;-44
2022/08/04 13:13:02;;;;;;;7.53;7.10;;;44.70;1.00;;;;;;5112759;28;20076;-44
2022/08/04 13:15:29;;;;;;;7.55;7.18;;;46.50;99.90;;;;;;5111995;28;20128;-45
2022/08/04 13:18:07;;;;;;;7.97;7.57;;;49.10;99.90;;;;;;5112562;28;20024;-45
2022/08/04 13:20:36;;;;;;;8.00;7.60;;;50.90;99.90;;;;;;5093171;28;20519;-45
2022/08/04 13:23:08;;;;;;;7.65;7.35;;;51.00;99.90;;;;;;5111702;28;20424;-45
2022/08/04 13:25:39;;;;;;;8.13;7.40;;;51.70;99.90;;;;;;5111009;28;20028;-46
2022/08/04 13:28:11;;;;;;;7.38;6.88;;;52.50;99.90;;;;;;5112661;28;20023;-45
2022/08/04 13:30:37;;;;;;;;;;;52.30;99.90;;;;;;5111853;28;20024;-47
2022/08/04 13:33:04;;;;;;;7.43;7.03;;;51.60;99.90;;;;;;5112535;28;19908;-45
2022/08/04 13:35:31;;;;;;;7.45;6.88;;;51.80;99.90;;;;;;5111514;28;20508;-46
2022/08/04 13:37:57;;;;;;;7.10;6.53;;;51.40;99.90;;;;;;5098528;28;20077;-44
2022/08/04 13:40:26;;;;;;;7.57;7.20;;;50.00;99.90;;;;;;5112413;28;20028;-46
2022/08/04 13:42:53;;;;;;;8.10;7.57;;;48.10;99.90;;;;;;5111324;28;20051;-46
2022/08/04 13:45:21;;;;;;;7.57;7.00;;;47.00;99.90;;;;;;5112704;28;20100;-44
2022/08/04 13:47:50;;;;;;;7.55;7.15;;;47.50;99.90;;;;;;5111158;28;20107;-45
2022/08/04 13:50:22;;;;;;;6.68;6.35;;;47.70;99.90;;;;;;5110492;28;20066;-44
2022/08/04 13:52:51;;;;;;;7.45;6.97;;;47.40;99.90;;;;;;5110657;28;20357;-45